Tropical Cyclones
[Index]
Season 2020-2021 Tropical Cyclone 202113 Track Map
Season 2020-2021 Summaries (Operational Data): [AU] [SIO] [SPAC] [SH]
<<- Previous TC | 2020-2021 Season | Next TC ->>

click for intensity scale information  Lat/long Grid: Show Hide

 Date Labels: Show Hide

Operational Tropical Cyclone Data

Name: 202113
Number: 2113

19 Jan 2021 00:00 UTC to 02 Feb 2021 18:00 UTC

    date/time    lat    long     hPa   cat  kts
2021-01-19 00   12.0   109.0    1006         20          
2021-01-19 06   12.0   108.0    1007         20          
2021-01-19 12   12.5   106.4    1006         20          
2021-01-19 18   12.7   104.9    1006         20          
2021-01-20 00   12.9   102.8    1004         20          
2021-01-20 06   12.8   100.9    1004         20          
2021-01-20 12   12.8    99.5    1003         25          
2021-01-20 18   12.4    98.5    1003         25          
2021-01-21 00   12.4    97.7     999         30          
2021-01-21 06   12.6    97.4    1001         30          
2021-01-21 12   12.9    97.4    1000         30          
2021-01-21 18   13.0    97.4     998         30          
2021-01-22 00   13.1    97.3     997         30          
2021-01-22 06   13.2    97.3     998         30          
2021-01-22 12   13.3    97.3     998         30          
2021-01-22 18   13.7    97.2     995         30          
2021-01-23 00   14.0    97.1     997         30          
2021-01-23 06   14.4    97.5     998         30          
2021-01-23 12   14.8    97.6     999         30          
2021-01-23 18   15.3    97.7    1001         25          
2021-01-24 00   15.8    97.4    1004         25          
2021-01-24 06   16.1    96.6     999         25          
2021-01-24 12   16.2    96.3     999         25          
2021-01-24 18   16.4    96.1    1000         25          
2021-01-25 00   16.5    95.9     996         30          
2021-01-25 06   17.2    95.9     998         30          
2021-01-25 12   17.7    95.8     999         30          
2021-01-25 18   18.2    95.4     999         30          
2021-01-26 00   18.6    94.9    1000         30          
2021-01-26 06   18.9    94.5    1000         30          
2021-01-26 12   19.3    94.1    1000         30          
2021-01-26 18   19.5    93.6    1001         30          
2021-01-27 00   19.5    92.2    1001         30          
2021-01-27 06   19.5    91.4    1003         25          
2021-01-27 12   19.3    89.7    1001         25          
2021-01-27 18   19.1    89.0    1004         20          
2021-01-28 00   18.9    87.4    1004         20          
2021-01-28 06   18.7    85.6    1007         20          
2021-01-28 12   18.0    85.0    1005         20          
2021-01-28 18   17.5    83.2    1007         20          
2021-01-29 00   17.7    80.3    1007         20          
2021-01-29 06   17.6    78.6    1007         20          
2021-01-29 12   17.5    77.3    1007         20          
2021-01-29 18   17.3    75.1    1007         20          
2021-01-30 00   16.8    73.1    1007         20          
2021-01-30 06   16.1    71.4    1004         20          
2021-01-30 12   15.6    69.5    1004         20          
2021-01-30 18   15.4    67.6    1004         20          
2021-01-31 00   15.3    65.8    1000         25          
2021-01-31 06   15.2    63.9    1000         25          
2021-01-31 12   14.9    61.8    1004         25          
2021-01-31 18   14.3    60.6    1004         20          
2021-02-01 00   13.7    59.4    1004         20          
2021-02-01 06   13.6    58.6    1006         20          
2021-02-01 12   13.5    57.8    1006         20          
2021-02-01 18   13.2    56.5    1006         20          
2021-02-02 00   13.0    55.2    1006         20          
2021-02-02 06   12.9    54.0    1007         20          
2021-02-02 12   12.7    52.6    1007         20          
2021-02-02 18   11.8    51.6    1007         20          
Winds were reported as (or converted to) 10-min average.

Tropical cyclone tracks developed by Michael Bath using operational warnings and advisories and Google Maps.


Document: tropical_cyclone_202113.htm
Updated: 7 May 2021
[Australian Severe Weather index] [Copyright Notice] [Email Contacts] [Search This Site] [Privacy Policy]


Main Index Home Page Stock Weather Photos Extreme Storms Discussion Storm News and Storm Chasing Reports Tropical Cyclones / Hurricanes / Typhoons Weather Data and Links Wild Fires / Bushfires Weather Observation Techniques Weather Picture Catalogue Tornado Pictures and Reports Stock Video Footage and DVDs for sale